White, South Dakota
Current Conditions -  °F | °C
As of 2:33 AM on Monday 22 Dec 2014 (Local Time) from KCNB Reporting Station
Overcast Overcast  
Wind Chill: 33°   Ceiling: 800
Heat Index: 39°   Visibility: 7mi
Dew Point: 37°   Wind: 9mph
Humidity: 93%   Direction: 160°SSE
Pressure: 29.51"   Gusts: 16mph
Location:  44.43°N, 96.65°W
Report Text: KCNB 220833Z AUTO 16008G14KT 7SM OVC008 04/03 A2951 RMK AO2 T00400030
Loading
Personal Weather Stations






























Interactive Weather Map New forecast layout! Learn more

10-Day Weather Forecast

Advertisements
Track Severe Weather on mobile